Lake George, Colorado
Current Conditions -  °F | °C
As of 10:14 PM on Friday 28 Nov 2014 (Local Time) from K4BM Reporting Station
Clear Clear  
Wind Chill: 23°   Ceiling: Unl
Heat Index: 32°   Visibility: 10mi
Dew Point: -2°   Wind: 12mph
Humidity: 23%   Direction: 230°SW
Pressure: 30.09"   Gusts: 24mph
Location:  38.98°N, 105.35°W
Report Text: K4BM 290514Z AUTO 23010G21KT 210V270 10SM CLR 00/M19 A3009 RMK AO2
Loading
Personal Weather Stations






























Interactive Weather Map New forecast layout! Learn more

10-Day Weather Forecast

Advertisements
Track Severe Weather on mobile